Time;durP1;ratioP1;P1;durP2;ratioP2;P2;SDS_P1;SDS_P2;PMS_P1;PMS_P2;Temp;Humidity;BMP_temperature;BMP_pressure;BME280_temperature;BME280_humidity;BME280_pressure;Samples;Min_cycle;Max_cycle;Signal;HPM_P1;HPM_P2
2022/01/13 00:01:45;;;;;;;22.95;15.15;;;-4.10;99.90;;;;;;5052761;28;20208;-76
2022/01/13 00:04:13;;;;;;;19.02;12.70;;;-4.10;99.90;;;;;;5051868;28;20910;-76
2022/01/13 00:06:42;;;;;;;18.58;13.63;;;-4.00;99.90;;;;;;5051865;28;20201;-76
2022/01/13 00:09:10;;;;;;;23.63;14.85;;;-4.00;99.90;;;;;;5051795;28;20242;-77
2022/01/13 00:11:37;;;;;;;23.63;16.00;;;-4.00;99.90;;;;;;5051515;28;20212;-73
2022/01/13 00:14:38;;;;;;;23.58;15.18;;;-3.90;99.90;;;;;;5052078;28;20223;-75
2022/01/13 00:17:11;;;;;;;20.48;13.65;;;-3.90;99.90;;;;;;5051805;28;20204;-75
2022/01/13 00:19:56;;;;;;;21.23;14.90;;;-3.70;99.90;;;;;;5051573;28;20215;-74
2022/01/13 00:22:42;;;;;;;21.58;14.10;;;-3.60;99.90;;;;;;5051246;28;20232;-74
2022/01/13 00:25:12;;;;;;;20.67;14.25;;;-3.60;99.90;;;;;;5051434;28;20283;-74
2022/01/13 00:27:43;;;;;;;25.25;15.95;;;-3.50;99.90;;;;;;5051619;28;20197;-74
2022/01/13 00:30:16;;;;;;;24.63;15.90;;;-3.40;99.90;;;;;;5066345;22;20320;-69
2022/01/13 00:32:43;;;;;;;22.88;15.40;;;-3.30;99.90;;;;;;5040485;28;20198;-70
2022/01/13 00:35:10;;;;;;;22.30;16.30;;;-3.20;99.90;;;;;;5015448;28;20312;-70
2022/01/13 00:37:40;;;;;;;25.60;16.42;;;-3.20;99.90;;;;;;5016864;28;20214;-70
2022/01/13 00:40:08;;;;;;;23.90;16.17;;;-3.20;99.90;;;;;;5021090;28;20297;-71
2022/01/13 00:42:35;;;;;;;21.88;15.25;;;-3.20;99.90;;;;;;5012458;28;20205;-71
2022/01/13 00:45:03;;;;;;;22.17;16.75;;;-3.10;99.90;;;;;;5012443;28;20227;-72
2022/01/13 00:47:30;;;;;;;21.17;15.40;;;-3.10;99.90;;;;;;5012427;28;20209;-71
2022/01/13 00:49:58;;;;;;;23.63;15.98;;;-3.10;99.90;;;;;;5012322;28;20748;-71
2022/01/13 00:52:25;;;;;;;24.08;14.77;;;-3.10;99.90;;;;;;5011939;28;20203;-71
2022/01/13 00:54:53;;;;;;;21.02;15.10;;;-3.10;99.90;;;;;;5012449;28;20218;-71
2022/01/13 00:57:20;;;;;;;23.33;15.90;;;-3.00;99.90;;;;;;5012110;28;20206;-72
2022/01/13 00:59:47;;;;;;;23.80;14.98;;;-3.10;99.90;;;;;;5012491;28;20206;-71
2022/01/13 01:02:13;;;;;;;23.55;16.42;;;-3.00;99.90;;;;;;5011577;28;20210;-72
2022/01/13 01:04:40;;;;;;;26.15;15.40;;;-3.00;99.90;;;;;;5012384;28;20227;-71
2022/01/13 01:07:07;;;;;;;22.77;15.13;;;-3.00;99.90;;;;;;5011605;28;20209;-71
2022/01/13 01:09:39;;;;;;;24.35;15.73;;;-3.00;99.90;;;;;;5012170;28;20205;-71
2022/01/13 01:12:09;;;;;;;23.98;14.45;;;-3.00;99.90;;;;;;5011591;28;20623;-71
2022/01/13 01:14:41;;;;;;;22.65;14.32;;;-3.00;99.90;;;;;;5011959;28;20292;-71
2022/01/13 01:17:08;;;;;;;21.50;14.52;;;-3.00;99.90;;;;;;5011709;28;20198;-71
2022/01/13 01:19:37;;;;;;;26.83;15.45;;;-2.90;99.90;;;;;;5011809;28;20225;-72
2022/01/13 01:22:36;;;;;;;25.42;16.75;;;-2.90;99.90;;;;;;5011351;28;20594;-72
2022/01/13 01:28:01;;;;;;;24.50;15.60;;;-2.70;99.90;;;;;;4970731;28;20210;-72
2022/01/13 01:30:34;;;;;;;21.80;15.40;;;-2.60;99.90;;;;;;5001885;28;20221;-72
2022/01/13 01:33:01;;;;;;;24.05;15.80;;;-2.60;99.90;;;;;;5011361;28;20210;-72
2022/01/13 01:35:28;;;;;;;22.40;15.00;;;-2.60;99.90;;;;;;5011453;28;20230;-72
2022/01/13 01:37:56;;;;;;;28.73;15.75;;;-2.60;99.90;;;;;;5011717;28;20225;-72
2022/01/13 01:40:24;;;;;;;24.90;16.67;;;-2.50;99.90;;;;;;5011442;28;20209;-72
2022/01/13 01:42:51;;;;;;;23.98;16.15;;;-2.50;99.90;;;;;;5010945;28;20583;-72
2022/01/13 01:45:19;;;;;;;22.73;16.00;;;-2.40;99.90;;;;;;5011263;28;20222;-72
2022/01/13 01:47:50;;;;;;;25.90;16.90;;;-2.40;99.90;;;;;;5011558;28;20585;-72
2022/01/13 01:50:20;;;;;;;21.60;16.38;;;-2.40;99.90;;;;;;5011395;28;20210;-72
2022/01/13 01:52:48;;;;;;;27.80;17.33;;;-2.40;99.90;;;;;;5010835;28;20207;-72
2022/01/13 01:55:16;;;;;;;26.77;17.88;;;-2.40;99.90;;;;;;5011450;28;20718;-73
2022/01/13 01:57:44;;;;;;;24.23;16.83;;;-2.30;99.90;;;;;;5011306;28;20210;-74
2022/01/13 02:00:13;;;;;;;24.42;16.77;;;-2.30;99.90;;;;;;5011241;28;20206;-74
2022/01/13 02:02:42;;;;;;;23.33;16.02;;;-2.30;99.90;;;;;;5010886;28;20213;-74
2022/01/13 02:05:09;;;;;;;24.95;16.80;;;-2.30;99.90;;;;;;5010805;28;20222;-72
2022/01/13 02:07:36;;;;;;;26.60;17.10;;;-2.20;99.90;;;;;;5011177;28;20229;-73
2022/01/13 02:10:04;;;;;;;24.30;16.65;;;-2.10;99.90;;;;;;5011023;28;20206;-72
2022/01/13 02:12:35;;;;;;;26.40;17.90;;;-2.10;99.90;;;;;;5010254;28;20217;-73
2022/01/13 02:15:27;;;;;;;26.13;16.60;;;-2.10;99.90;;;;;;5011233;28;20258;-72
2022/01/13 02:17:55;;;;;;;24.08;18.02;;;-2.00;99.90;;;;;;5010602;28;20286;-72
2022/01/13 02:20:24;;;;;;;21.88;16.23;;;-2.00;99.90;;;;;;5009988;28;20285;-72
2022/01/13 02:22:51;;;;;;;26.98;17.30;;;-1.90;99.90;;;;;;5010142;28;20209;-72
2022/01/13 02:25:18;;;;;;;24.85;16.05;;;-1.90;99.90;;;;;;5010458;28;20230;-72
2022/01/13 02:27:45;;;;;;;23.70;15.82;;;-1.90;99.90;;;;;;5010839;28;20202;-72
2022/01/13 02:30:13;;;;;;;24.20;16.88;;;-1.80;99.90;;;;;;5010808;28;20214;-72
2022/01/13 02:32:40;;;;;;;28.25;17.88;;;-1.80;99.90;;;;;;5010394;28;20206;-73
2022/01/13 02:35:08;;;;;;;24.77;16.17;;;-1.80;99.90;;;;;;5011160;28;20587;-71
2022/01/13 02:37:36;;;;;;;27.42;17.98;;;-1.80;99.90;;;;;;5010909;28;20210;-72
2022/01/13 02:40:04;;;;;;;29.45;18.27;;;-1.80;99.90;;;;;;5010588;28;20312;-71
2022/01/13 02:42:32;;;;;;;23.75;15.95;;;-1.80;99.90;;;;;;5010259;28;20198;-71
2022/01/13 02:45:03;;;;;;;27.33;18.13;;;-1.80;99.90;;;;;;5010721;28;20608;-71
2022/01/13 02:48:00;;;;;;;24.88;18.23;;;-1.80;99.90;;;;;;5010749;28;20261;-71
2022/01/13 02:50:27;;;;;;;21.27;15.48;;;-1.90;99.90;;;;;;5010762;28;20256;-71
2022/01/13 02:52:55;;;;;;;24.40;16.75;;;-1.90;99.90;;;;;;5010267;28;20699;-73
2022/01/13 02:55:24;;;;;;;20.83;14.50;;;-1.90;99.90;;;;;;5010452;28;20218;-72
2022/01/13 02:57:51;;;;;;;24.48;16.75;;;-1.80;99.90;;;;;;5010559;28;20589;-71
2022/01/13 03:00:19;;;;;;;26.48;17.73;;;-1.70;99.90;;;;;;5010408;28;20230;-71
2022/01/13 03:02:47;;;;;;;21.08;15.07;;;-1.70;99.90;;;;;;5009976;28;20685;-71
2022/01/13 03:05:16;;;;;;;25.67;15.93;;;-1.70;99.90;;;;;;5010336;28;20625;-71
2022/01/13 03:07:43;;;;;;;26.17;16.92;;;-1.70;99.90;;;;;;5010749;28;20202;-71
2022/01/13 03:10:12;;;;;;;28.38;17.92;;;-1.60;99.90;;;;;;5010386;28;20201;-71
2022/01/13 03:12:43;;;;;;;22.65;16.70;;;-1.60;99.90;;;;;;5010095;28;20222;-71
2022/01/13 03:15:10;;;;;;;23.67;16.38;;;-1.60;99.90;;;;;;5010306;28;20249;-71
2022/01/13 03:17:37;;;;;;;23.92;16.48;;;-1.60;99.90;;;;;;5010612;28;20276;-71
2022/01/13 03:20:05;;;;;;;24.80;16.02;;;-1.60;99.90;;;;;;5010238;28;20226;-71
2022/01/13 03:22:31;;;;;;;23.00;15.95;;;-1.60;99.90;;;;;;5010028;28;20205;-71
2022/01/13 03:24:58;;;;;;;25.33;16.48;;;-1.60;99.90;;;;;;5010282;28;20617;-71
2022/01/13 03:27:34;;;;;;;24.20;16.25;;;-1.60;99.90;;;;;;5010496;28;20203;-71
2022/01/13 03:30:03;;;;;;;22.85;16.48;;;-1.50;99.90;;;;;;5010531;28;20236;-71
2022/01/13 03:32:30;;;;;;;26.70;17.80;;;-1.40;99.90;;;;;;5013507;28;20552;-71
2022/01/13 03:34:56;;;;;;;23.63;16.63;;;-1.40;99.90;;;;;;5013639;28;20218;-71
2022/01/13 03:37:23;;;;;;;23.55;15.48;;;-1.40;99.90;;;;;;5013936;28;20198;-71
2022/01/13 03:39:50;;;;;;;28.45;18.33;;;-1.30;99.90;;;;;;5013745;28;20225;-71
2022/01/13 03:42:17;;;;;;;24.08;16.80;;;-1.30;99.90;;;;;;5013608;28;20213;-71
2022/01/13 03:44:45;;;;;;;21.95;16.13;;;-1.30;99.90;;;;;;5013726;28;20223;-71
2022/01/13 03:47:13;;;;;;;31.00;18.23;;;-1.30;99.90;;;;;;5013476;28;20203;-71
2022/01/13 03:49:40;;;;;;;23.00;15.40;;;-1.30;99.90;;;;;;5013899;28;20198;-71
2022/01/13 03:52:52;;;;;;;23.02;16.42;;;-1.30;99.90;;;;;;5012783;28;20574;-71
2022/01/13 03:55:55;;;;;;;19.15;15.02;;;-1.30;99.90;;;;;;5013410;28;20588;-71
2022/01/13 03:58:56;;;;;;;24.25;15.48;;;-1.20;99.90;;;;;;4998115;28;20229;-71
2022/01/13 04:01:52;;;;;;;19.65;15.60;;;-1.20;99.90;;;;;;5012877;28;20704;-71
2022/01/13 04:04:19;;;;;;;24.85;15.98;;;-1.20;99.90;;;;;;5013420;28;20229;-71
2022/01/13 04:06:47;;;;;;;26.25;17.17;;;-1.20;99.90;;;;;;5013250;28;20234;-71
2022/01/13 04:09:46;;;;;;;21.98;16.15;;;-1.10;99.90;;;;;;5013088;28;20202;-71
2022/01/13 04:12:14;;;;;;;20.45;15.05;;;-1.10;99.90;;;;;;5012731;28;20199;-71
2022/01/13 04:14:46;;;;;;;22.90;17.00;;;-1.10;99.90;;;;;;5013297;28;20226;-71
2022/01/13 04:17:16;;;;;;;22.40;16.27;;;-1.10;99.90;;;;;;5013042;28;20237;-71
2022/01/13 04:19:43;;;;;;;23.17;16.77;;;-1.10;99.90;;;;;;5013169;28;20222;-71
2022/01/13 04:22:11;;;;;;;21.00;15.57;;;-1.10;99.90;;;;;;5012403;28;20213;-71
2022/01/13 04:24:39;;;;;;;18.45;14.95;;;-1.10;99.90;;;;;;5012967;28;20223;-71
2022/01/13 04:27:08;;;;;;;25.98;17.52;;;-1.10;99.90;;;;;;5012887;28;20202;-71
2022/01/13 04:29:37;;;;;;;22.83;15.27;;;-1.00;99.90;;;;;;5013077;28;20574;-71
2022/01/13 04:32:05;;;;;;;22.50;16.20;;;-1.10;99.90;;;;;;5012142;28;20221;-72
2022/01/13 04:34:34;;;;;;;22.60;16.40;;;-1.10;99.90;;;;;;5012927;28;20732;-72
2022/01/13 04:37:01;;;;;;;22.05;16.17;;;-1.10;99.90;;;;;;5012554;28;20210;-72
2022/01/13 04:39:31;;;;;;;23.60;15.77;;;-1.10;99.90;;;;;;5012924;28;20700;-72
2022/01/13 04:41:58;;;;;;;24.00;15.88;;;-1.10;99.90;;;;;;5011209;28;20257;-72
2022/01/13 04:44:26;;;;;;;26.02;16.67;;;-1.10;99.90;;;;;;5013113;28;20234;-72
2022/01/13 04:46:54;;;;;;;23.65;15.40;;;-1.10;99.90;;;;;;5012636;28;20205;-72
2022/01/13 04:49:22;;;;;;;24.20;16.73;;;-1.00;99.90;;;;;;5012826;28;20198;-72
2022/01/13 04:51:51;;;;;;;21.13;15.93;;;-1.00;99.90;;;;;;5011957;28;20209;-72
2022/01/13 04:54:18;;;;;;;21.95;15.38;;;-1.00;99.90;;;;;;5012457;28;20576;-72
2022/01/13 04:57:04;;;;;;;23.40;16.73;;;-1.00;99.90;;;;;;5012583;28;20198;-72
2022/01/13 04:59:31;;;;;;;24.98;17.38;;;-1.00;99.90;;;;;;5012363;28;20321;-72
2022/01/13 05:02:00;;;;;;;25.50;16.35;;;-1.00;99.90;;;;;;5011963;28;20214;-72
2022/01/13 05:04:27;;;;;;;25.10;18.52;;;-1.10;99.90;;;;;;5012232;28;20851;-72
2022/01/13 05:06:55;;;;;;;26.30;18.63;;;-1.00;99.90;;;;;;5012247;28;20202;-72
2022/01/13 05:09:22;;;;;;;22.60;16.67;;;-1.00;99.90;;;;;;5011833;28;20194;-71
2022/01/13 05:11:48;;;;;;;21.15;16.17;;;-1.00;99.90;;;;;;5011615;28;20209;-71
2022/01/13 05:14:15;;;;;;;25.42;17.02;;;-1.00;99.90;;;;;;5011768;28;20222;-71
2022/01/13 05:16:54;;;;;;;24.13;17.15;;;-1.00;99.90;;;;;;5011807;28;20202;-69
2022/01/13 05:19:25;;;;;;;23.95;16.98;;;-0.90;99.90;;;;;;5011718;28;20226;-69
2022/01/13 05:22:15;;;;;;;26.00;18.35;;;-0.90;99.90;;;;;;5011358;28;20206;-70
2022/01/13 05:24:45;;;;;;;25.33;18.00;;;-0.70;99.90;;;;;;5011915;28;20591;-70
2022/01/13 05:27:13;;;;;;;24.10;17.20;;;-0.70;99.90;;;;;;5011886;28;20190;-71
2022/01/13 05:29:40;;;;;;;26.65;17.90;;;-0.80;99.90;;;;;;5012092;28;20198;-71
2022/01/13 05:32:07;;;;;;;26.88;17.05;;;-0.90;99.90;;;;;;5012298;28;20214;-71
2022/01/13 05:34:34;;;;;;;23.30;17.40;;;-0.90;99.90;;;;;;5011932;28;20578;-71
2022/01/13 05:37:00;;;;;;;22.92;16.30;;;-0.90;99.90;;;;;;5012083;28;20459;-71
2022/01/13 05:39:28;;;;;;;23.17;16.92;;;-1.00;99.90;;;;;;5011718;28;20223;-70
2022/01/13 05:41:56;;;;;;;21.85;17.00;;;-1.00;99.90;;;;;;5011671;28;20289;-71
2022/01/13 05:44:23;;;;;;;24.70;17.10;;;-1.00;99.90;;;;;;5011840;28;20226;-71
2022/01/13 05:46:49;;;;;;;25.35;18.42;;;-0.90;99.90;;;;;;5011819;28;20210;-71
2022/01/13 05:49:16;;;;;;;25.40;17.05;;;-1.00;99.90;;;;;;5018780;28;20194;-70
2022/01/13 05:51:43;;;;;;;24.50;16.75;;;-1.00;99.90;;;;;;5019645;28;20632;-70
2022/01/13 05:54:10;;;;;;;24.35;17.30;;;-1.00;99.90;;;;;;5020143;28;20222;-70
2022/01/13 05:56:36;;;;;;;17.88;14.85;;;-1.00;99.90;;;;;;5018003;28;20209;-71
2022/01/13 05:59:04;;;;;;;24.50;16.55;;;-1.00;99.90;;;;;;5020935;28;20687;-71
2022/01/13 06:01:31;;;;;;;23.88;16.63;;;-1.00;99.90;;;;;;5018322;28;20198;-71
2022/01/13 06:03:58;;;;;;;22.75;16.60;;;-1.10;99.90;;;;;;5020512;28;20221;-72
2022/01/13 06:06:24;;;;;;;22.38;16.48;;;-1.10;99.90;;;;;;5020830;28;20194;-71
2022/01/13 06:08:51;;;;;;;27.00;18.00;;;-1.10;99.90;;;;;;5019886;28;20209;-70
2022/01/13 06:11:22;;;;;;;25.52;17.20;;;-1.10;99.90;;;;;;5021358;28;20197;-70
2022/01/13 06:13:49;;;;;;;24.55;17.20;;;-1.10;99.90;;;;;;5020549;28;20625;-70
2022/01/13 06:16:17;;;;;;;23.80;17.10;;;-1.10;99.90;;;;;;5013556;28;20202;-71
2022/01/13 06:18:44;;;;;;;21.92;17.20;;;-1.10;99.90;;;;;;5010736;28;20214;-70
2022/01/13 06:21:11;;;;;;;24.90;16.40;;;-1.00;99.90;;;;;;5011103;28;20938;-71
2022/01/13 06:23:37;;;;;;;24.35;18.27;;;-1.00;99.90;;;;;;5026879;28;20202;-70
2022/01/13 06:26:06;;;;;;;23.17;17.02;;;-1.00;99.90;;;;;;5030477;28;20255;-71
2022/01/13 06:28:33;;;;;;;22.30;15.15;;;-1.00;99.90;;;;;;5030277;28;20545;-71
2022/01/13 06:31:00;;;;;;;22.45;15.35;;;-1.00;99.90;;;;;;5029734;28;20205;-71
2022/01/13 06:33:28;;;;;;;27.83;17.65;;;-1.00;99.90;;;;;;5021134;28;20200;-71
2022/01/13 06:35:55;;;;;;;24.13;18.15;;;-1.00;99.90;;;;;;5020037;28;20670;-71
2022/01/13 06:38:23;;;;;;;21.65;16.95;;;-1.00;99.90;;;;;;5019054;28;20571;-71
2022/01/13 06:40:50;;;;;;;25.15;18.38;;;-1.10;99.90;;;;;;5010185;28;20218;-71
2022/01/13 06:43:17;;;;;;;22.10;16.52;;;-1.10;99.90;;;;;;5017410;28;20206;-72
2022/01/13 06:45:43;;;;;;;20.75;14.70;;;-1.20;99.90;;;;;;5010322;28;20230;-71
2022/01/13 06:48:10;;;;;;;21.85;17.02;;;-1.20;99.90;;;;;;5010739;28;20202;-72
2022/01/13 06:50:38;;;;;;;21.60;15.88;;;-1.20;99.90;;;;;;5010271;28;20194;-72
2022/01/13 06:53:05;;;;;;;22.70;17.42;;;-1.20;99.90;;;;;;5010655;28;20222;-71
2022/01/13 06:55:32;;;;;;;21.67;15.73;;;-1.20;99.90;;;;;;5010204;28;20195;-74
2022/01/13 06:57:59;;;;;;;23.98;16.58;;;-1.20;99.90;;;;;;5010649;28;20551;-74
2022/01/13 07:00:26;;;;;;;24.67;16.63;;;-1.20;99.90;;;;;;5010405;28;20222;-73
2022/01/13 07:02:56;;;;;;;23.15;15.88;;;-1.20;99.90;;;;;;5009916;28;20202;-73
2022/01/13 07:05:22;;;;;;;21.50;15.57;;;-1.20;99.90;;;;;;5011075;28;20246;-75
2022/01/13 07:07:51;;;;;;;21.45;16.00;;;-1.30;99.90;;;;;;5026371;28;20265;-71
2022/01/13 07:10:17;;;;;;;22.67;17.40;;;-1.30;99.90;;;;;;5033555;28;20201;-71
2022/01/13 07:12:44;;;;;;;22.40;15.90;;;-1.30;99.90;;;;;;5033124;28;20209;-71
2022/01/13 07:15:12;;;;;;;21.73;16.45;;;-1.40;99.90;;;;;;5034139;28;20241;-71
2022/01/13 07:17:38;;;;;;;23.13;15.32;;;-1.40;99.90;;;;;;5033413;28;20205;-72
2022/01/13 07:20:07;;;;;;;23.20;15.93;;;-1.50;99.90;;;;;;5016750;28;20616;-71
2022/01/13 07:22:34;;;;;;;23.63;16.13;;;-1.50;99.90;;;;;;5013338;28;20209;-72
2022/01/13 07:25:02;;;;;;;28.63;18.98;;;-1.50;99.90;;;;;;5013612;28;20244;-71
2022/01/13 07:27:28;;;;;;;22.65;16.95;;;-1.50;99.90;;;;;;5018013;28;20201;-71
2022/01/13 07:29:55;;;;;;;22.58;15.70;;;-1.50;99.90;;;;;;5019272;28;20901;-72
2022/01/13 07:32:22;;;;;;;28.15;17.90;;;-1.60;99.90;;;;;;5013406;28;20658;-71
2022/01/13 07:34:48;;;;;;;30.05;17.30;;;-1.60;99.90;;;;;;5013470;28;20725;-70
2022/01/13 07:37:15;;;;;;;23.92;17.13;;;-1.60;99.90;;;;;;5013815;28;20206;-73
2022/01/13 07:39:42;;;;;;;23.40;17.17;;;-1.70;99.90;;;;;;5013612;28;20593;-73
2022/01/13 07:42:10;;;;;;;25.25;16.67;;;-1.70;99.90;;;;;;5013234;28;20206;-72
2022/01/13 07:44:37;;;;;;;22.30;16.30;;;-1.60;99.90;;;;;;5013567;28;20249;-71
2022/01/13 07:47:04;;;;;;;22.80;16.60;;;-1.60;99.90;;;;;;5027498;28;20205;-70
2022/01/13 07:49:31;;;;;;;25.67;16.73;;;-1.60;99.90;;;;;;5032428;28;20202;-70
2022/01/13 07:51:58;;;;;;;28.23;17.10;;;-1.50;99.90;;;;;;5031493;28;20240;-69
2022/01/13 07:54:25;;;;;;;21.92;16.38;;;-1.50;99.90;;;;;;5032496;28;20221;-72
2022/01/13 07:56:52;;;;;;;21.45;17.08;;;-1.50;99.90;;;;;;5032138;28;20198;-70
2022/01/13 07:59:21;;;;;;;21.15;14.65;;;-1.50;99.90;;;;;;5032349;28;20198;-74
2022/01/13 08:01:48;;;;;;;22.10;14.90;;;-1.40;99.90;;;;;;5030130;28;20868;-72
2022/01/13 08:04:17;;;;;;;26.08;17.35;;;-1.20;99.90;;;;;;5031688;28;20221;-70
2022/01/13 08:06:43;;;;;;;21.00;14.85;;;-1.10;99.90;;;;;;5032276;28;20208;-72
2022/01/13 08:09:10;;;;;;;19.85;14.48;;;-0.80;99.90;;;;;;5032535;28;20225;-70
2022/01/13 08:11:37;;;;;;;22.60;15.40;;;-0.50;99.90;;;;;;5032117;28;20200;-73
2022/01/13 08:14:04;;;;;;;23.05;14.52;;;-0.20;99.90;;;;;;5032418;28;20226;-72
2022/01/13 08:16:35;;;;;;;19.77;14.90;;;0.20;99.90;;;;;;5032416;28;20208;-77
2022/01/13 08:21:46;;;;;;;23.27;14.85;;;1.20;99.90;;;;;;5031655;28;20228;-72
2022/01/13 08:24:13;;;;;;;19.88;14.18;;;2.00;99.90;;;;;;5031857;28;20226;-70
2022/01/13 08:26:40;;;;;;;20.52;15.82;;;2.90;99.90;;;;;;5031772;28;20206;-72
2022/01/13 08:29:07;;;;;;;19.27;15.95;;;3.70;99.90;;;;;;5031790;28;20217;-73
2022/01/13 08:31:35;;;;;;;21.00;15.43;;;4.30;99.90;;;;;;5030721;28;20209;-72
2022/01/13 08:34:02;;;;;;;22.23;15.70;;;5.00;99.90;;;;;;5031564;28;20236;-71
2022/01/13 08:36:29;;;;;;;19.52;15.43;;;5.40;99.90;;;;;;5031730;28;20198;-72
2022/01/13 08:38:55;;;;;;;20.48;15.25;;;5.70;99.90;;;;;;5030972;28;20801;-73
2022/01/13 08:41:22;;;;;;;19.17;15.88;;;5.80;99.90;;;;;;5031164;28;20214;-76
2022/01/13 08:43:51;;;;;;;25.75;15.98;;;5.50;99.90;;;;;;5031590;28;20586;-72
2022/01/13 08:46:18;;;;;;;18.48;14.80;;;5.20;99.90;;;;;;5032629;28;20387;-75
2022/01/13 08:48:46;;;;;;;21.08;15.88;;;4.90;99.90;;;;;;5032834;28;20202;-72
2022/01/13 08:51:17;;;;;;;21.33;16.00;;;4.70;99.90;;;;;;5031087;28;20704;-72
2022/01/13 08:53:43;;;;;;;18.02;14.10;;;4.30;99.90;;;;;;5031107;28;20224;-71
2022/01/13 08:56:10;;;;;;;20.23;15.90;;;4.20;99.90;;;;;;5031186;28;20206;-72
2022/01/13 08:58:37;;;;;;;18.95;15.75;;;4.00;99.90;;;;;;5031481;28;20256;-71
2022/01/13 09:01:04;;;;;;;20.38;15.75;;;3.80;99.90;;;;;;5030777;28;20225;-71
2022/01/13 09:03:31;;;;;;;21.02;15.93;;;3.60;99.90;;;;;;5031119;28;20712;-72
2022/01/13 09:05:59;;;;;;;19.77;15.95;;;3.40;99.90;;;;;;5020463;28;20198;-73
2022/01/13 09:08:26;;;;;;;20.08;14.85;;;3.30;99.90;;;;;;5023798;28;20201;-71
2022/01/13 09:10:53;;;;;;;19.55;14.68;;;3.30;99.90;;;;;;5029438;28;20198;-71
2022/01/13 09:13:19;;;;;;;22.55;15.52;;;3.30;99.90;;;;;;5014606;28;20205;-71
2022/01/13 09:15:51;;;;;;;24.67;16.88;;;3.20;99.90;;;;;;5030308;28;20198;-69
2022/01/13 09:18:30;;;;;;;21.17;16.60;;;3.20;99.90;;;;;;5018953;28;20691;-69
2022/01/13 09:20:58;;;;;;;21.65;15.52;;;3.20;99.90;;;;;;5009332;28;20237;-72
2022/01/13 09:23:26;;;;;;;24.42;16.13;;;3.20;99.90;;;;;;5026344;28;20203;-71
2022/01/13 09:25:54;;;;;;;24.17;16.90;;;3.40;99.90;;;;;;5010809;28;20421;-70
2022/01/13 09:28:22;;;;;;;20.80;15.23;;;4.30;99.90;;;;;;5018085;28;20214;-72
2022/01/13 09:30:49;;;;;;;23.83;15.82;;;6.00;99.90;;;;;;5009996;28;20210;-72
2022/01/13 09:33:16;;;;;;;18.42;15.10;;;7.80;99.90;;;;;;5010207;28;20207;-72
2022/01/13 09:35:43;;;;;;;20.58;13.40;;;9.20;99.20;;;;;;5010269;28;20314;-72
2022/01/13 09:38:11;;;;;;;15.38;12.32;;;9.90;97.20;;;;;;5019549;28;20224;-73
2022/01/13 09:40:39;;;;;;;15.80;13.20;;;10.60;95.90;;;;;;5029802;28;20693;-71
2022/01/13 09:43:06;;;;;;;15.55;12.90;;;11.50;94.90;;;;;;5012956;28;20740;-71
2022/01/13 09:45:34;;;;;;;14.93;13.43;;;12.30;93.40;;;;;;5029807;28;20217;-71
2022/01/13 09:48:01;;;;;;;18.02;13.68;;;12.90;92.90;;;;;;5022246;28;20198;-71
2022/01/13 09:50:28;;;;;;;13.85;12.15;;;13.70;91.80;;;;;;5009998;28;20226;-72
2022/01/13 09:52:55;;;;;;;18.60;13.52;;;14.00;90.80;;;;;;5009403;28;20225;-71
2022/01/13 09:55:24;;;;;;;14.27;11.55;;;13.80;90.10;;;;;;5010136;28;20222;-71
2022/01/13 09:57:55;;;;;;;12.27;11.02;;;12.70;90.40;;;;;;5009965;28;20198;-71
2022/01/13 10:00:26;;;;;;;13.30;11.70;;;11.80;91.30;;;;;;5019107;28;20206;-70
2022/01/13 10:02:53;;;;;;;12.63;10.77;;;12.10;91.60;;;;;;5014642;28;20202;-72
2022/01/13 10:05:22;;;;;;;12.90;11.60;;;12.50;91.50;;;;;;5019760;28;20253;-70
2022/01/13 10:07:52;;;;;;;13.55;11.43;;;12.90;90.50;;;;;;5009387;28;20202;-72
2022/01/13 10:10:22;;;;;;;12.02;10.82;;;13.30;91.00;;;;;;5018192;28;20297;-70
2022/01/13 10:13:01;;;;;;;12.95;11.57;;;13.90;90.80;;;;;;5028069;28;20289;-71
2022/01/13 10:18:12;;;;;;;13.23;11.83;;;14.80;89.80;;;;;;5009093;28;20284;-72
2022/01/13 10:20:39;;;;;;;18.33;11.65;;;14.90;89.00;;;;;;5008409;28;20481;-72
2022/01/13 10:23:07;;;;;;;13.98;10.95;;;15.00;90.00;;;;;;5023084;28;20686;-71
2022/01/13 10:25:37;;;;;;;13.50;12.20;;;15.30;89.20;;;;;;5009775;28;20233;-73
2022/01/13 10:28:16;;;;;;;13.20;11.37;;;15.70;85.90;;;;;;5013912;28;20476;-71
2022/01/13 10:30:45;;;;;;;13.20;11.80;;;15.80;88.00;;;;;;5008354;28;20496;-71
2022/01/13 10:33:18;;;;;;;13.63;11.30;;;15.80;86.50;;;;;;5023206;28;20468;-70
2022/01/13 10:35:45;;;;;;;14.57;11.90;;;15.60;87.20;;;;;;5008607;28;20600;-71
2022/01/13 10:38:16;;;;;;;17.00;12.40;;;15.70;85.60;;;;;;5020282;28;20471;-71
2022/01/13 10:40:46;;;;;;;13.87;11.57;;;15.60;87.20;;;;;;5019734;28;20484;-71
2022/01/13 10:43:12;;;;;;;13.47;11.33;;;15.60;85.90;;;;;;5023976;28;20879;-73
2022/01/13 10:45:53;;;;;;;13.50;11.97;;;15.40;86.70;;;;;;5033037;28;20995;-71
2022/01/13 10:48:23;;;;;;;13.87;12.47;;;15.70;85.70;;;;;;5032786;28;20456;-73
2022/01/13 10:50:51;;;;;;;13.77;12.27;;;15.70;86.30;;;;;;5032114;28;20468;-73
2022/01/13 10:53:20;;;;;;;13.43;12.07;;;15.50;86.30;;;;;;5031907;28;20456;-74
2022/01/13 10:55:50;;;;;;;14.90;13.40;;;15.60;85.80;;;;;;5031868;28;20817;-75
2022/01/13 10:58:18;;;;;;;14.60;13.10;;;15.90;84.80;;;;;;5032769;28;20206;-73
2022/01/13 11:00:50;;;;;;;13.43;12.03;;;16.70;84.00;;;;;;5032534;28;20476;-74
2022/01/13 11:03:20;;;;;;;14.83;12.50;;;17.20;82.20;;;;;;5032638;28;20460;-74
2022/01/13 11:05:49;;;;;;;14.43;12.93;;;17.40;82.00;;;;;;5032297;28;20468;-74
2022/01/13 11:08:28;;;;;;;14.80;12.93;;;17.70;82.00;;;;;;5024665;28;20465;-74
2022/01/13 11:10:57;;;;;;;14.67;12.87;;;17.40;82.70;;;;;;5017280;28;20465;-74
2022/01/13 11:13:27;;;;;;;14.07;12.50;;;17.50;81.20;;;;;;5022771;28;20467;-74
2022/01/13 11:15:55;;;;;;;14.17;12.23;;;17.10;81.50;;;;;;5022930;28;20588;-73
2022/01/13 11:18:25;;;;;;;14.53;13.03;;;17.30;81.60;;;;;;5020867;28;20487;-74
2022/01/13 11:20:52;;;;;;;14.40;12.90;;;17.80;81.20;;;;;;5018771;28;20492;-73
2022/01/13 11:23:20;;;;;;;15.00;12.57;;;17.90;80.50;;;;;;5013386;28;20461;-72
2022/01/13 11:25:48;;;;;;;15.30;12.93;;;17.50;80.30;;;;;;5012992;28;20465;-72
2022/01/13 11:28:16;;;;;;;13.90;12.40;;;17.70;80.80;;;;;;5013127;28;20465;-71
2022/01/13 11:30:44;;;;;;;14.37;12.87;;;17.80;79.20;;;;;;5015235;28;20475;-72
2022/01/13 11:33:10;;;;;;;13.70;12.40;;;18.00;79.40;;;;;;5032352;28;20456;-69
2022/01/13 11:35:45;;;;;;;15.07;11.90;;;17.40;80.60;;;;;;5032731;28;20487;-72
2022/01/13 11:38:16;;;;;;;13.80;12.40;;;17.60;79.30;;;;;;5025843;28;20460;-71
2022/01/13 11:40:46;;;;;;;13.50;12.20;;;18.00;80.00;;;;;;5012974;28;20564;-70
2022/01/13 11:43:36;;;;;;;14.77;12.10;;;18.40;78.60;;;;;;5012773;28;20468;-69
2022/01/13 11:46:19;;;;;;;15.40;12.30;;;18.30;78.20;;;;;;5010684;28;20465;-70
2022/01/13 11:49:03;;;;;;;15.53;12.60;;;18.10;78.40;;;;;;5012412;28;20515;-71
2022/01/13 11:51:44;;;;;;;14.53;12.00;;;17.60;79.10;;;;;;5011714;28;20895;-72
2022/01/13 11:54:24;;;;;;;13.27;12.00;;;17.10;79.40;;;;;;5013100;28;20539;-72
2022/01/13 11:57:13;;;;;;;16.57;13.10;;;16.80;79.30;;;;;;5012886;28;20455;-69
2022/01/13 11:59:47;;;;;;;13.73;12.07;;;16.00;80.60;;;;;;5012629;28;20461;-72
2022/01/13 12:02:24;;;;;;;13.60;12.20;;;15.60;81.20;;;;;;5011902;28;20898;-72
2022/01/13 12:05:01;;;;;;;15.57;12.50;;;15.10;81.80;;;;;;5012247;28;21008;-73
2022/01/13 12:07:37;;;;;;;15.20;12.40;;;14.90;82.00;;;;;;5012266;28;20464;-70
2022/01/13 12:10:05;;;;;;;18.15;12.57;;;15.10;82.80;;;;;;5027827;28;20471;-72
2022/01/13 12:12:33;;;;;;;16.23;11.30;;;15.20;82.50;;;;;;5030921;28;20632;-71
2022/01/13 12:15:17;;;;;;;13.75;12.30;;;15.40;82.10;;;;;;5029393;28;20484;-71
2022/01/13 12:17:45;;;;;;;16.10;12.80;;;15.40;82.40;;;;;;5051357;28;20205;-72
2022/01/13 12:20:24;;;;;;;15.30;13.17;;;15.50;82.10;;;;;;5039474;28;20555;-72
2022/01/13 12:23:02;;;;;;;13.88;12.45;;;15.30;82.20;;;;;;5030276;28;20491;-71
2022/01/13 12:25:32;;;;;;;16.73;13.70;;;14.60;83.00;;;;;;5032124;28;20217;-72
2022/01/13 12:28:00;;;;;;;14.00;12.13;;;14.00;84.70;;;;;;5031270;28;20212;-71
2022/01/13 12:30:29;;;;;;;17.00;13.50;;;13.60;85.70;;;;;;5031851;28;20736;-72
2022/01/13 12:32:57;;;;;;;16.25;14.15;;;13.40;85.60;;;;;;5022813;28;20200;-72
2022/01/13 12:35:43;;;;;;;17.17;13.10;;;13.10;86.30;;;;;;5010686;28;20229;-72
2022/01/13 12:38:13;;;;;;;21.25;12.43;;;12.70;87.00;;;;;;5011660;28;20233;-72
2022/01/13 12:40:45;;;;;;;19.02;12.20;;;12.30;88.10;;;;;;5011194;28;20202;-72
2022/01/13 12:43:35;;;;;;;14.77;12.70;;;12.10;88.60;;;;;;5010968;28;20767;-71
2022/01/13 12:46:04;;;;;;;15.68;12.75;;;11.80;88.70;;;;;;5010938;28;20234;-70
2022/01/13 12:48:31;;;;;;;14.23;12.68;;;11.30;89.80;;;;;;5011931;28;20214;-72
2022/01/13 12:50:59;;;;;;;14.73;11.63;;;11.30;89.80;;;;;;5010612;28;20676;-72